Time;durP1;ratioP1;P1;durP2;ratioP2;P2;SDS_P1;SDS_P2;PMS_P1;PMS_P2;Temp;Humidity;BMP_temperature;BMP_pressure;BME280_temperature;BME280_humidity;BME280_pressure;Samples;Min_cycle;Max_cycle;Signal;HPM_P1;HPM_P2
2022/04/09 00:01:38;;;;;;;9.60;2.80;;;;;;;5.15;100.00;98882.44;5230639;28;20024;-76
2022/04/09 00:04:08;;;;;;;7.38;2.40;;;;;;;5.19;100.00;98880.56;5224733;28;20024;-76
2022/04/09 00:06:39;;;;;;;10.30;2.83;;;;;;;5.20;100.00;98887.44;5226034;28;20025;-76
2022/04/09 00:09:09;;;;;;;7.07;2.60;;;;;;;5.18;100.00;98890.06;5231070;28;20044;-75
2022/04/09 00:11:39;;;;;;;5.60;2.15;;;;;;;5.15;100.00;98895.38;5232654;28;20413;-75
2022/04/09 00:14:10;;;;;;;11.05;2.90;;;;;;;5.19;100.00;98896.94;5228293;28;20036;-76
2022/04/09 00:16:40;;;;;;;11.15;3.20;;;;;;;5.36;100.00;98899.66;5226941;28;20021;-75
2022/04/09 00:19:10;;;;;;;8.00;3.20;;;;;;;5.37;100.00;98898.78;5233260;28;20458;-75
2022/04/09 00:21:41;;;;;;;8.38;3.63;;;;;;;5.19;99.85;98904.69;5229979;28;20024;-75
2022/04/09 00:24:12;;;;;;;9.45;3.30;;;;;;;5.17;100.00;98901.31;5218892;28;20025;-76
2022/04/09 00:26:42;;;;;;;8.75;3.70;;;;;;;5.13;100.00;98904.97;5219231;28;20111;-75
2022/04/09 00:29:13;;;;;;;9.13;3.60;;;;;;;5.13;100.00;98902.38;5228522;28;20099;-76
2022/04/09 00:31:43;;;;;;;8.98;3.05;;;;;;;5.07;100.00;98912.13;5229997;28;20063;-76
2022/04/09 00:34:13;;;;;;;6.28;3.05;;;;;;;5.10;100.00;98920.63;5233445;28;20081;-75
2022/04/09 00:36:43;;;;;;;7.95;3.10;;;;;;;5.13;100.00;98917.91;5229487;28;20079;-75
2022/04/09 00:39:14;;;;;;;9.02;3.25;;;;;;;5.00;100.00;98921.03;5230083;28;20036;-76
2022/04/09 00:41:49;;;;;;;6.57;2.72;;;;;;;5.09;100.00;98926.69;5232917;28;20664;-75
2022/04/09 00:44:21;;;;;;;12.95;2.90;;;;;;;5.15;100.00;98931.63;5222321;28;20036;-76
2022/04/09 00:46:51;;;;;;;7.32;2.85;;;;;;;5.04;100.00;98928.63;5231353;28;20633;-76
2022/04/09 00:49:21;;;;;;;11.27;3.15;;;;;;;5.02;100.00;98937.34;5230170;28;20028;-75
2022/04/09 00:51:54;;;;;;;10.07;3.33;;;;;;;5.00;100.00;98937.41;5232617;28;20020;-76
2022/04/09 00:54:26;;;;;;;7.10;2.60;;;;;;;5.10;100.00;98937.88;5230272;28;20066;-76
2022/04/09 00:57:05;;;;;;;8.07;2.88;;;;;;;5.11;100.00;98943.00;5231754;28;20028;-76
2022/04/09 00:59:37;;;;;;;7.00;2.55;;;;;;;4.84;100.00;98945.84;5231953;28;20079;-75
2022/04/09 01:02:08;;;;;;;8.50;2.50;;;;;;;4.84;100.00;98944.06;5230675;28;20035;-76
2022/04/09 01:04:42;;;;;;;8.77;2.63;;;;;;;4.88;100.00;98953.44;5232423;28;20029;-76
2022/04/09 01:07:14;;;;;;;9.93;2.83;;;;;;;4.93;100.00;98956.69;5229798;28;20029;-75
2022/04/09 01:09:45;;;;;;;8.75;2.30;;;;;;;4.91;100.00;98963.66;5233231;28;20055;-76
2022/04/09 01:12:16;;;;;;;8.07;2.40;;;;;;;4.92;100.00;98982.59;5232898;28;20028;-76
2022/04/09 01:14:46;;;;;;;10.98;2.60;;;;;;;4.90;100.00;98976.66;5207978;28;20670;-76
2022/04/09 01:17:18;;;;;;;9.18;2.42;;;;;;;4.91;100.00;98988.69;5230385;28;20443;-76
2022/04/09 01:19:48;;;;;;;7.80;2.28;;;;;;;5.03;100.00;98978.72;5225341;28;20024;-76
2022/04/09 01:22:18;;;;;;;9.55;2.30;;;;;;;4.88;100.00;98989.66;5232775;28;20397;-76
2022/04/09 01:24:49;;;;;;;12.32;2.30;;;;;;;4.92;100.00;98993.81;5229372;28;20029;-76
2022/04/09 01:27:19;;;;;;;8.70;2.10;;;;;;;4.94;100.00;99002.34;5232829;28;20032;-76
2022/04/09 01:29:49;;;;;;;15.15;2.72;;;;;;;4.91;100.00;99005.06;5229422;28;20036;-76
2022/04/09 01:32:19;;;;;;;13.93;2.75;;;;;;;4.94;100.00;99004.94;5232426;28;20054;-76
2022/04/09 01:34:52;;;;;;;11.20;2.10;;;;;;;5.00;100.00;99012.47;5229089;28;20021;-76
2022/04/09 01:37:22;;;;;;;6.82;2.17;;;;;;;5.11;100.00;99018.09;5231964;28;20052;-76
2022/04/09 01:39:52;;;;;;;8.50;2.00;;;;;;;4.86;100.00;99021.66;5229687;28;20052;-76
2022/04/09 01:42:26;;;;;;;7.72;2.20;;;;;;;4.93;100.00;99023.97;5231943;28;20286;-76
2022/04/09 01:44:56;;;;;;;11.35;1.90;;;;;;;5.02;100.00;99033.97;5226983;28;20020;-76
2022/04/09 01:47:27;;;;;;;10.32;2.10;;;;;;;4.95;100.00;99042.88;5232529;28;20564;-76
2022/04/09 01:52:30;;;;;;;11.75;2.20;;;;;;;5.02;100.00;99041.75;5229757;28;20060;-78
2022/04/09 01:55:00;;;;;;;7.28;2.00;;;;;;;5.01;100.00;99052.16;5236570;28;20041;-78
2022/04/09 01:57:30;;;;;;;9.07;2.10;;;;;;;4.91;100.00;99054.25;5237752;28;20180;-78
2022/04/09 02:00:01;;;;;;;8.20;2.25;;;;;;;5.03;100.00;99058.97;5237734;28;20073;-78
2022/04/09 02:02:32;;;;;;;9.75;2.00;;;;;;;5.01;100.00;99060.75;5226960;28;20034;-77
2022/04/09 02:05:02;;;;;;;8.85;1.60;;;;;;;4.91;100.00;99067.19;5226777;28;20025;-78
2022/04/09 02:07:35;;;;;;;9.30;2.20;;;;;;;4.84;100.00;99068.28;5208610;28;20024;-78
2022/04/09 02:10:06;;;;;;;10.52;1.88;;;;;;;4.84;100.00;99082.97;5226396;28;20401;-78
2022/04/09 02:12:37;;;;;;;10.82;1.75;;;;;;;4.78;100.00;99081.47;5225937;28;20531;-78
2022/04/09 02:15:10;;;;;;;8.00;1.92;;;;;;;4.85;100.00;99085.53;5199424;28;20037;-78
2022/04/09 02:17:41;;;;;;;7.68;1.88;;;;;;;4.86;100.00;99092.38;5225100;28;20043;-78
2022/04/09 02:20:13;;;;;;;11.60;2.03;;;;;;;4.72;100.00;99092.03;5224945;28;20036;-78
2022/04/09 02:22:45;;;;;;;14.13;2.38;;;;;;;4.80;100.00;99100.34;5225414;28;20332;-78
2022/04/09 02:25:17;;;;;;;10.40;2.13;;;;;;;4.77;100.00;99105.66;5207285;28;20411;-78
2022/04/09 02:27:47;;;;;;;11.02;2.30;;;;;;;4.88;100.00;99108.69;5217365;28;20051;-79
2022/04/09 02:30:17;;;;;;;9.57;1.80;;;;;;;4.93;100.00;99111.97;5207063;28;20029;-78
2022/04/09 02:32:49;;;;;;;8.90;2.28;;;;;;;4.94;100.00;99118.81;5206807;28;20456;-78
2022/04/09 02:35:22;;;;;;;10.82;2.40;;;;;;;4.86;100.00;99120.84;5225114;28;20043;-78
2022/04/09 02:37:53;;;;;;;8.10;1.88;;;;;;;4.80;100.00;99131.41;5224697;28;20466;-78
2022/04/09 02:40:24;;;;;;;5.80;1.42;;;;;;;4.82;100.00;99124.44;5223871;28;20040;-78
2022/04/09 02:42:55;;;;;;;7.32;1.80;;;;;;;4.68;100.00;99137.03;5203691;28;20036;-78
2022/04/09 02:45:25;;;;;;;9.65;1.85;;;;;;;4.77;100.00;99136.69;5214332;28;20022;-78
2022/04/09 02:47:55;;;;;;;7.20;2.15;;;;;;;4.88;100.00;99146.66;5223088;28;20021;-78
2022/04/09 02:50:25;;;;;;;10.52;2.15;;;;;;;4.82;100.00;99149.47;5208551;28;20482;-78
2022/04/09 02:52:56;;;;;;;8.68;1.92;;;;;;;4.81;100.00;99158.13;5208405;28;20035;-78
2022/04/09 02:55:26;;;;;;;9.75;2.50;;;;;;;4.74;100.00;99157.50;5225683;28;20029;-78
2022/04/09 02:57:56;;;;;;;11.73;2.22;;;;;;;4.87;100.00;99158.78;5226093;28;20032;-78
2022/04/09 03:00:27;;;;;;;12.68;2.30;;;;;;;4.69;100.00;99168.91;5225583;28;20111;-78
2022/04/09 03:02:57;;;;;;;8.70;2.15;;;;;;;4.69;100.00;99169.78;5225798;28;20473;-78
2022/04/09 03:05:27;;;;;;;8.90;2.25;;;;;;;4.75;100.00;99177.31;5225783;28;20708;-78
2022/04/09 03:07:58;;;;;;;10.90;2.10;;;;;;;4.72;100.00;99192.94;5225861;28;20048;-78
2022/04/09 03:10:28;;;;;;;6.22;2.05;;;;;;;4.65;100.00;99191.44;5226106;28;20103;-78
2022/04/09 03:12:58;;;;;;;6.40;1.98;;;;;;;4.72;100.00;99199.84;5223192;28;20166;-78
2022/04/09 03:15:29;;;;;;;9.27;2.10;;;;;;;4.83;100.00;99202.91;5200179;28;20039;-78
2022/04/09 03:17:59;;;;;;;10.57;2.08;;;;;;;4.82;100.00;99211.56;5207355;28;20043;-78
2022/04/09 03:20:29;;;;;;;10.10;2.40;;;;;;;4.91;100.00;99206.94;5225585;28;20048;-78
2022/04/09 03:23:00;;;;;;;10.55;2.72;;;;;;;4.87;100.00;99212.25;5225809;28;20025;-78
2022/04/09 03:25:30;;;;;;;10.20;2.28;;;;;;;4.73;100.00;99217.91;5226211;28;20025;-78
2022/04/09 03:28:00;;;;;;;12.68;2.53;;;;;;;4.75;100.00;99220.44;5225189;28;20113;-79
2022/04/09 03:30:31;;;;;;;9.45;2.90;;;;;;;4.69;100.00;99221.50;5225420;28;20071;-78
2022/04/09 03:33:01;;;;;;;10.98;2.95;;;;;;;4.69;100.00;99231.84;5224616;28;20025;-78
2022/04/09 03:35:31;;;;;;;15.00;2.95;;;;;;;4.65;100.00;99235.41;5208174;28;20056;-78
2022/04/09 03:38:02;;;;;;;11.38;3.53;;;;;;;4.49;100.00;99239.41;5225282;28;20059;-78
2022/04/09 03:40:33;;;;;;;13.00;2.65;;;;;;;4.47;100.00;99243.78;5207575;28;20021;-78
2022/04/09 03:43:03;;;;;;;8.02;2.47;;;;;;;4.58;100.00;99249.47;5221538;28;20032;-78
2022/04/09 03:45:33;;;;;;;8.18;2.40;;;;;;;4.58;100.00;99249.47;5200123;28;20033;-78
2022/04/09 03:48:05;;;;;;;9.73;2.97;;;;;;;4.62;100.00;99245.03;5208138;28;20033;-78
2022/04/09 03:50:36;;;;;;;13.35;2.67;;;;;;;4.68;100.00;99255.19;5225701;28;20021;-78
2022/04/09 03:53:07;;;;;;;14.30;2.53;;;;;;;4.75;100.00;99257.50;5207980;28;20535;-78
2022/04/09 03:55:37;;;;;;;9.73;2.60;;;;;;;4.79;100.00;99266.84;5226194;28;20084;-78
2022/04/09 03:58:07;;;;;;;10.60;2.55;;;;;;;4.78;100.00;99266.94;5226066;28;20032;-78
2022/04/09 04:00:38;;;;;;;10.13;2.53;;;;;;;4.78;100.00;99265.16;5226325;28;20029;-78
2022/04/09 04:03:09;;;;;;;10.82;2.80;;;;;;;4.82;100.00;99264.16;5207798;28;20452;-78
2022/04/09 04:05:40;;;;;;;8.40;2.13;;;;;;;4.73;100.00;99269.66;5225767;28;20044;-78
2022/04/09 04:08:10;;;;;;;8.98;2.10;;;;;;;4.84;100.00;99277.91;5226541;28;20025;-78
2022/04/09 04:10:41;;;;;;;10.50;2.63;;;;;;;4.77;100.00;99285.94;5226121;28;20027;-78
2022/04/09 04:13:11;;;;;;;10.55;2.38;;;;;;;4.89;100.00;99276.03;5220567;28;20478;-78
2022/04/09 04:15:42;;;;;;;9.60;2.30;;;;;;;4.87;100.00;99288.16;5219512;28;20024;-77
2022/04/09 04:18:13;;;;;;;8.60;2.20;;;;;;;4.91;100.00;99294.94;5207672;28;20040;-77
2022/04/09 04:20:43;;;;;;;8.45;2.42;;;;;;;4.92;100.00;99290.56;5209562;28;20071;-78
2022/04/09 04:23:13;;;;;;;11.77;2.50;;;;;;;4.81;100.00;99300.47;5208790;28;20431;-78
2022/04/09 04:25:43;;;;;;;6.80;2.25;;;;;;;4.82;100.00;99315.09;5227750;28;20029;-78
2022/04/09 04:28:14;;;;;;;9.23;2.83;;;;;;;4.80;100.00;99314.28;5227029;28;20029;-78
2022/04/09 04:30:44;;;;;;;10.13;2.50;;;;;;;4.83;100.00;99316.78;5226658;28;20085;-78
2022/04/09 04:33:15;;;;;;;9.05;2.33;;;;;;;4.73;100.00;99324.00;5227335;28;20024;-78
2022/04/09 04:35:45;;;;;;;10.20;2.60;;;;;;;4.76;100.00;99321.31;5209155;28;20028;-78
2022/04/09 04:38:15;;;;;;;8.50;2.55;;;;;;;4.78;100.00;99332.44;5227204;28;20029;-78
2022/04/09 04:40:45;;;;;;;6.55;2.10;;;;;;;4.78;100.00;99329.03;5227045;28;20025;-78
2022/04/09 04:43:16;;;;;;;10.25;2.25;;;;;;;4.85;100.00;99330.50;5223537;28;20028;-78
2022/04/09 04:45:46;;;;;;;8.18;1.98;;;;;;;4.96;100.00;99334.44;5220764;28;20454;-78
2022/04/09 04:48:16;;;;;;;9.68;2.20;;;;;;;4.95;100.00;99342.28;5227506;28;20024;-77
2022/04/09 04:50:47;;;;;;;9.35;2.22;;;;;;;4.87;100.00;99350.28;5218893;28;20016;-78
2022/04/09 04:53:17;;;;;;;8.70;2.75;;;;;;;4.85;100.00;99352.06;5227074;28;20027;-78
2022/04/09 04:55:47;;;;;;;12.43;3.10;;;;;;;4.99;100.00;99357.63;5209202;28;20032;-78
2022/04/09 04:58:19;;;;;;;11.10;2.33;;;;;;;4.94;100.00;99354.34;5226605;28;20138;-78
2022/04/09 05:00:50;;;;;;;11.35;2.60;;;;;;;4.91;100.00;99364.81;5208758;28;20025;-78
2022/04/09 05:03:20;;;;;;;7.03;2.00;;;;;;;4.83;100.00;99368.53;5226654;28;20041;-78
2022/04/09 05:05:50;;;;;;;10.43;2.05;;;;;;;5.04;100.00;99373.00;5208545;28;20514;-78
2022/04/09 05:08:21;;;;;;;8.60;2.03;;;;;;;4.91;100.00;99371.72;5226808;28;20095;-78
2022/04/09 05:10:51;;;;;;;14.15;2.28;;;;;;;4.89;100.00;99379.53;5225994;28;20021;-77
2022/04/09 05:13:22;;;;;;;11.68;2.08;;;;;;;4.91;100.00;99384.66;5220771;28;20056;-78
2022/04/09 05:15:53;;;;;;;7.03;1.52;;;;;;;4.93;100.00;99391.47;5219888;28;20024;-78
2022/04/09 05:18:23;;;;;;;9.88;1.80;;;;;;;4.81;100.00;99404.81;5210610;28;20082;-75
2022/04/09 05:20:53;;;;;;;12.82;2.45;;;;;;;4.86;100.00;99402.06;5231927;28;20029;-77
2022/04/09 05:23:23;;;;;;;8.60;1.60;;;;;;;4.81;100.00;99412.56;5230191;28;20046;-78
2022/04/09 05:25:54;;;;;;;7.35;1.80;;;;;;;4.77;100.00;99416.16;5211819;28;20097;-78
2022/04/09 05:28:24;;;;;;;11.38;2.00;;;;;;;4.83;100.00;99415.13;5230476;28;20032;-76
2022/04/09 05:30:55;;;;;;;12.80;1.85;;;;;;;4.90;100.00;99421.78;5235663;28;20052;-76
2022/04/09 05:33:25;;;;;;;9.65;1.83;;;;;;;4.76;100.00;99424.81;5233745;28;20021;-78
2022/04/09 05:35:56;;;;;;;8.77;1.80;;;;;;;4.88;100.00;99426.16;5211521;28;20382;-78
2022/04/09 05:38:27;;;;;;;6.03;1.77;;;;;;;5.03;100.00;99434.31;5212540;28;20025;-76
2022/04/09 05:40:57;;;;;;;11.70;1.70;;;;;;;4.95;100.00;99441.44;5235567;28;20051;-77
2022/04/09 05:43:29;;;;;;;8.50;1.60;;;;;;;4.84;100.00;99443.53;5229986;28;20044;-77
2022/04/09 05:45:59;;;;;;;8.57;1.90;;;;;;;5.00;100.00;99447.31;5212101;28;20036;-76
2022/04/09 05:48:29;;;;;;;11.25;2.10;;;;;;;5.16;100.00;99453.72;5234431;28;20040;-76
2022/04/09 05:51:00;;;;;;;11.85;3.40;;;;;;;5.24;100.00;99443.97;5234687;28;20021;-76
2022/04/09 05:53:30;;;;;;;8.57;2.45;;;;;;;5.22;100.00;99456.13;5235193;28;20112;-75
2022/04/09 05:56:00;;;;;;;7.55;1.77;;;;;;;5.23;100.00;99457.81;5234724;28;20481;-75
2022/04/09 05:58:31;;;;;;;7.85;1.77;;;;;;;5.45;99.92;99469.19;5234241;28;20031;-75
2022/04/09 06:01:01;;;;;;;5.63;1.40;;;;;;;5.48;99.57;99466.47;5234640;28;20025;-77
2022/04/09 06:03:32;;;;;;;7.30;1.85;;;;;;;5.58;99.14;99465.28;5233704;28;20485;-78
2022/04/09 06:06:02;;;;;;;9.02;1.63;;;;;;;5.72;98.85;99483.81;5230732;28;20043;-76
2022/04/09 06:08:33;;;;;;;7.40;1.45;;;;;;;5.86;96.89;99476.44;5228991;28;20472;-77
2022/04/09 06:11:03;;;;;;;6.13;1.50;;;;;;;5.87;96.78;99493.69;5227755;28;20289;-78
2022/04/09 06:13:34;;;;;;;6.35;1.50;;;;;;;5.85;96.84;99498.94;5222719;28;20026;-77
2022/04/09 06:16:08;;;;;;;11.63;1.60;;;;;;;5.93;97.08;99499.50;5222019;28;20557;-76
2022/04/09 06:18:38;;;;;;;6.43;1.48;;;;;;;6.04;95.58;99504.31;5228371;28;20151;-78
2022/04/09 06:21:09;;;;;;;7.50;1.50;;;;;;;6.37;94.45;99505.72;5227990;28;20339;-77
2022/04/09 06:23:40;;;;;;;8.60;1.55;;;;;;;6.39;93.93;99503.94;5228471;28;20040;-76
2022/04/09 06:26:10;;;;;;;6.47;1.58;;;;;;;6.49;93.97;99511.34;5228002;28;20032;-77
2022/04/09 06:28:40;;;;;;;9.05;1.63;;;;;;;6.47;93.47;99512.28;5209589;28;20047;-77
2022/04/09 06:31:10;;;;;;;8.15;1.80;;;;;;;6.30;94.45;99520.69;5228072;28;20035;-77
2022/04/09 06:33:41;;;;;;;4.72;1.42;;;;;;;6.47;93.08;99523.53;5227996;28;20081;-77
2022/04/09 06:36:11;;;;;;;6.35;1.58;;;;;;;6.50;92.00;99514.78;5227146;28;20033;-77
2022/04/09 06:38:41;;;;;;;7.70;1.70;;;;;;;6.52;92.15;99528.53;5227078;28;20031;-76
2022/04/09 06:41:12;;;;;;;9.73;1.55;;;;;;;6.65;92.19;99532.38;5226306;28;20041;-75
2022/04/09 06:43:42;;;;;;;9.18;1.42;;;;;;;6.87;92.26;99528.09;5222112;28;20524;-75
2022/04/09 06:46:14;;;;;;;6.63;1.35;;;;;;;6.70;91.27;99535.66;5221140;28;20044;-77
2022/04/09 06:48:44;;;;;;;10.85;1.90;;;;;;;6.47;92.29;99538.25;5226375;28;20029;-75
2022/04/09 06:51:14;;;;;;;8.80;1.30;;;;;;;6.52;93.04;99541.50;5220116;28;20102;-76
2022/04/09 06:53:44;;;;;;;8.18;2.03;;;;;;;7.00;90.48;99550.09;5226663;28;20035;-76
2022/04/09 06:56:15;;;;;;;7.57;1.40;;;;;;;8.04;85.97;99551.06;5225869;28;20482;-75
2022/04/09 06:58:45;;;;;;;9.20;1.75;;;;;;;7.90;84.96;99548.16;5225967;28;20453;-76
2022/04/09 07:01:15;;;;;;;7.32;1.45;;;;;;;7.58;86.24;99564.25;5224225;28;20025;-76
2022/04/09 07:03:45;;;;;;;9.15;1.70;;;;;;;7.25;88.18;99569.06;5225426;28;20025;-77
2022/04/09 07:06:17;;;;;;;8.20;1.48;;;;;;;7.04;88.77;99564.66;5216224;28;20068;-77
2022/04/09 07:08:47;;;;;;;7.93;1.42;;;;;;;6.97;89.01;99571.84;5213130;28;20119;-76
2022/04/09 07:11:18;;;;;;;7.70;1.20;;;;;;;6.66;89.57;99568.69;5215344;28;20022;-76
2022/04/09 07:13:48;;;;;;;10.93;1.50;;;;;;;6.73;90.28;99577.09;5216671;28;20013;-78
2022/04/09 07:16:19;;;;;;;6.72;1.60;;;;;;;7.62;87.77;99573.63;5221927;28;20025;-77
2022/04/09 07:18:49;;;;;;;5.50;1.38;;;;;;;8.58;83.37;99566.94;5224974;28;20033;-75
2022/04/09 07:21:20;;;;;;;8.20;1.20;;;;;;;10.63;76.92;99561.34;5215793;28;20033;-76
2022/04/09 07:23:50;;;;;;;12.98;1.50;;;;;;;10.34;73.88;99556.78;5227589;28;20437;-77
2022/04/09 07:26:20;;;;;;;7.53;1.50;;;;;;;9.50;77.13;99568.78;5221869;28;20029;-77
2022/04/09 07:28:53;;;;;;;8.48;1.52;;;;;;;9.71;75.91;99570.34;5225110;28;20025;-76
2022/04/09 07:31:23;;;;;;;7.20;1.40;;;;;;;8.84;77.99;99582.28;5202272;28;20177;-76
2022/04/09 07:33:53;;;;;;;8.52;1.58;;;;;;;8.33;81.79;99589.75;5222970;28;20079;-77
2022/04/09 07:36:24;;;;;;;6.35;1.35;;;;;;;8.18;82.04;99595.59;5227732;28;20024;-77
2022/04/09 07:38:54;;;;;;;8.50;1.30;;;;;;;9.23;79.01;99590.91;5208684;28;20386;-76
2022/04/09 07:41:25;;;;;;;5.05;1.40;;;;;;;11.75;71.50;99579.56;5226366;28;20029;-76
2022/04/09 07:43:56;;;;;;;5.82;1.10;;;;;;;10.46;71.95;99587.47;5224335;28;20025;-78
2022/04/09 07:46:26;;;;;;;6.60;0.98;;;;;;;9.44;74.38;99597.72;5218649;28;20092;-75
2022/04/09 07:48:56;;;;;;;7.25;1.40;;;;;;;9.51;74.17;99594.78;5226575;28;20108;-76
2022/04/09 07:51:26;;;;;;;6.90;1.20;;;;;;;8.82;77.12;99606.69;5232966;22;20144;-79
2022/04/09 07:53:57;;;;;;;8.95;1.13;;;;;;;9.13;77.19;99600.91;5189362;28;20034;-80
2022/04/09 07:56:27;;;;;;;6.35;1.30;;;;;;;10.12;75.17;99597.91;5198141;28;20025;-80
2022/04/09 07:58:57;;;;;;;6.78;1.55;;;;;;;10.80;71.77;99603.13;5197770;28;20040;-80
2022/04/09 08:01:28;;;;;;;5.13;1.10;;;;;;;11.12;69.68;99596.13;5188453;28;20479;-80
2022/04/09 08:03:58;;;;;;;7.18;1.48;;;;;;;9.90;73.79;99610.31;5178722;28;20021;-80
2022/04/09 08:06:28;;;;;;;5.93;1.13;;;;;;;10.01;72.62;99608.03;5199485;28;20434;-80
2022/04/09 08:08:59;;;;;;;7.65;1.10;;;;;;;8.98;75.79;99611.19;5194893;28;20100;-80
2022/04/09 08:11:29;;;;;;;6.75;1.20;;;;;;;9.49;75.99;99625.28;5185996;28;20038;-80
2022/04/09 08:14:00;;;;;;;6.47;1.00;;;;;;;11.50;69.33;99620.22;5165045;28;20484;-79
2022/04/09 08:16:31;;;;;;;6.90;1.20;;;;;;;13.37;63.07;99611.75;5194654;28;20036;-80
2022/04/09 08:19:03;;;;;;;5.85;1.05;;;;;;;13.30;61.63;99616.53;5186714;28;20025;-81
2022/04/09 08:21:33;;;;;;;5.93;1.50;;;;;;;13.93;61.26;99614.25;5187166;28;20101;-81
2022/04/09 08:24:04;;;;;;;5.38;1.13;;;;;;;13.49;62.50;99614.47;5185163;28;20518;-81
2022/04/09 08:26:34;;;;;;;9.52;1.77;;;;;;;12.60;64.46;99623.47;5184066;28;20138;-80
2022/04/09 08:29:05;;;;;;;3.23;1.00;;;;;;;10.45;67.87;99635.41;5187573;28;20163;-80
2022/04/09 08:31:36;;;;;;;8.77;1.85;;;;;;;12.01;65.48;99633.94;5186055;28;20354;-80
2022/04/09 08:34:06;;;;;;;9.60;1.92;;;;;;;12.86;63.33;99633.25;5183504;28;20656;-80
2022/04/09 08:36:36;;;;;;;3.63;0.93;;;;;;;10.92;66.67;99628.63;5201415;28;20025;-80
2022/04/09 08:39:07;;;;;;;9.90;1.65;;;;;;;10.40;69.12;99637.44;5186688;28;20031;-80
2022/04/09 08:41:40;;;;;;;4.20;1.30;;;;;;;10.14;70.97;99645.72;5185957;28;20029;-80
2022/04/09 08:44:12;;;;;;;4.75;1.23;;;;;;;9.42;72.28;99643.91;5198546;28;20021;-80
2022/04/09 08:46:42;;;;;;;7.88;1.60;;;;;;;9.39;73.27;99650.13;5200634;28;20100;-80
2022/04/09 08:49:13;;;;;;;7.32;1.40;;;;;;;8.86;75.53;99660.38;5203802;28;20116;-80
2022/04/09 08:51:44;;;;;;;5.32;1.33;;;;;;;8.76;76.73;99659.91;5203543;28;20037;-79
2022/04/09 08:54:16;;;;;;;9.90;1.50;;;;;;;10.13;74.37;99646.63;5202891;28;20506;-81
2022/04/09 08:56:49;;;;;;;6.43;1.67;;;;;;;11.98;68.00;99628.00;5186364;28;20029;-82
2022/04/09 08:59:20;;;;;;;3.15;0.98;;;;;;;11.23;66.92;99640.84;5184251;28;20664;-81
2022/04/09 09:01:50;;;;;;;6.05;2.28;;;;;;;12.34;64.31;99636.41;5204913;28;20430;-82
2022/04/09 09:04:20;;;;;;;8.10;3.53;;;;;;;11.85;65.99;99648.81;5184737;28;20026;-82
2022/04/09 09:06:51;;;;;;;6.68;1.80;;;;;;;11.81;65.08;99642.03;5184447;28;20027;-81
2022/04/09 09:09:26;;;;;;;5.82;1.35;;;;;;;13.73;61.01;99641.78;5173983;28;20040;-82
2022/04/09 09:12:00;;;;;;;5.05;1.30;;;;;;;12.37;63.02;99646.69;5177741;28;20052;-81
2022/04/09 09:14:32;;;;;;;8.13;0.90;;;;;;;11.55;65.97;99660.91;5171624;28;20029;-82
2022/04/09 09:17:03;;;;;;;10.57;1.48;;;;;;;12.53;63.99;99666.69;5200475;28;20017;-81
2022/04/09 09:19:45;;;;;;;5.45;0.90;;;;;;;12.68;62.18;99663.19;5203909;28;20491;-81
2022/04/09 09:22:16;;;;;;;4.85;1.02;;;;;;;12.81;62.35;99658.88;5186134;28;20631;-81
2022/04/09 09:25:03;;;;;;;7.10;1.50;;;;;;;14.09;59.89;99644.69;5186512;28;20030;-81
2022/04/09 09:27:34;;;;;;;3.95;0.95;;;;;;;11.75;64.32;99679.03;5199175;28;20489;-81
2022/04/09 09:30:05;;;;;;;8.82;1.30;;;;;;;10.79;68.18;99677.22;5203600;28;20037;-81
2022/04/09 09:32:36;;;;;;;8.02;1.20;;;;;;;9.58;72.21;99681.41;5184741;28;20085;-81
2022/04/09 09:35:07;;;;;;;6.78;1.20;;;;;;;9.23;73.29;99679.53;5180841;28;20120;-81
2022/04/09 09:37:48;;;;;;;4.32;1.00;;;;;;;10.52;70.55;99668.16;5191297;28;20041;-81
2022/04/09 09:40:32;;;;;;;9.18;1.17;;;;;;;10.45;66.94;99674.59;5177735;28;20120;-81
2022/04/09 09:43:19;;;;;;;3.80;0.75;;;;;;;10.57;67.41;99674.00;5169209;28;20109;-81
2022/04/09 09:45:51;;;;;;;4.63;0.98;;;;;;;9.81;68.46;99689.88;5168968;28;20040;-81
2022/04/09 09:48:28;;;;;;;6.70;1.30;;;;;;;9.58;70.79;99692.69;5195483;28;20446;-80
2022/04/09 09:50:59;;;;;;;4.47;1.30;;;;;;;10.55;69.96;99681.06;5193574;28;20061;-80
2022/04/09 09:53:31;;;;;;;4.55;0.90;;;;;;;10.84;69.55;99685.69;5177931;28;20533;-81
2022/04/09 09:56:03;;;;;;;7.28;1.52;;;;;;;11.11;68.52;99683.34;5191384;28;20460;-81
2022/04/09 09:58:34;;;;;;;5.63;1.05;;;;;;;10.58;67.92;99678.31;5170798;28;20496;-80
2022/04/09 10:01:05;;;;;;;5.47;1.08;;;;;;;10.49;68.12;99684.81;5177276;28;20083;-80
2022/04/09 10:03:36;;;;;;;3.97;0.70;;;;;;;10.67;67.06;99683.91;5199892;28;20514;-81
2022/04/09 10:06:07;;;;;;;6.85;1.13;;;;;;;10.42;67.54;99691.28;5187403;28;20179;-81
2022/04/09 10:08:39;;;;;;;3.15;0.73;;;;;;;10.17;68.76;99682.94;5205398;28;20033;-80
2022/04/09 10:11:10;;;;;;;3.65;1.02;;;;;;;10.10;70.43;99694.59;5203752;28;20112;-80
2022/04/09 10:13:43;;;;;;;5.28;1.10;;;;;;;9.99;70.03;99701.22;5201107;28;20430;-81
2022/04/09 10:16:18;;;;;;;6.07;1.02;;;;;;;10.11;69.71;99700.66;5199118;28;20061;-80
2022/04/09 10:18:49;;;;;;;3.33;1.00;;;;;;;10.22;69.10;99706.22;5188286;28;20087;-81
2022/04/09 10:21:19;;;;;;;8.20;2.22;;;;;;;9.66;70.95;99713.22;5195339;28;20339;-80
2022/04/09 10:23:52;;;;;;;12.77;3.70;;;;;;;9.83;71.97;99710.69;5205879;28;20060;-81
2022/04/09 10:26:25;;;;;;;5.03;1.30;;;;;;;9.86;70.85;99705.31;5202915;28;20038;-80
2022/04/09 10:29:07;;;;;;;7.53;1.70;;;;;;;10.28;71.19;99705.91;5188640;28;20037;-81
2022/04/09 10:31:39;;;;;;;5.28;0.93;;;;;;;10.35;69.62;99702.09;5204352;28;20041;-80
2022/04/09 10:34:16;;;;;;;6.97;0.88;;;;;;;10.35;67.89;99697.72;5201905;28;20028;-81
2022/04/09 10:36:46;;;;;;;3.13;1.00;;;;;;;10.43;67.67;99697.34;5185030;28;20081;-81
2022/04/09 10:39:39;;;;;;;3.25;0.95;;;;;;;10.77;66.29;99684.28;5183443;28;20056;-81
2022/04/09 10:42:10;;;;;;;3.25;1.00;;;;;;;10.51;66.55;99697.81;5186365;28;20169;-81
2022/04/09 10:44:44;;;;;;;2.67;0.68;;;;;;;9.92;67.10;99691.97;5180240;28;20017;-80
2022/04/09 10:47:15;;;;;;;5.55;1.00;;;;;;;9.85;68.67;99701.84;5200564;28;20033;-80
2022/04/09 10:50:59;;;;;;;4.75;1.38;;;;;;;9.75;69.42;99700.59;5187020;28;20022;-81
2022/04/09 10:53:37;;;;;;;4.40;0.82;;;;;;;10.00;69.85;99695.09;5183175;28;20029;-80
2022/04/09 10:56:15;;;;;;;8.85;1.17;;;;;;;10.10;69.09;99705.03;5202631;28;20052;-81
2022/04/09 10:59:05;;;;;;;5.28;1.05;;;;;;;9.67;68.26;99692.25;5182099;28;20071;-80
2022/04/09 11:01:51;;;;;;;5.72;1.13;;;;;;;9.63;68.39;99705.53;5183021;28;20501;-81
2022/04/09 11:04:27;;;;;;;3.25;0.82;;;;;;;9.30;69.87;99733.13;5197092;28;20021;-81
2022/04/09 11:07:18;;;;;;;5.15;1.45;;;;;;;9.24;75.13;99741.19;5204125;28;20029;-80
2022/04/09 11:09:54;;;;;;;1.77;0.50;;;;;;;9.11;77.01;99734.84;5192333;28;20022;-80
2022/04/09 11:12:42;;;;;;;2.90;0.43;;;;;;;8.86;78.81;99738.56;5185631;28;20116;-80
2022/04/09 11:15:16;;;;;;;1.35;0.60;;;;;;;9.06;78.58;99726.34;5176590;28;20379;-80
2022/04/09 11:17:46;;;;;;;3.75;0.50;;;;;;;9.21;77.64;99734.38;5178057;28;20328;-80
2022/04/09 11:20:18;;;;;;;3.53;0.90;;;;;;;9.42;77.35;99732.56;5181011;28;20597;-80
2022/04/09 11:22:54;;;;;;;5.55;0.95;;;;;;;9.46;76.62;99727.16;5203621;28;20051;-80
2022/04/09 11:25:27;;;;;;;5.00;0.90;;;;;;;9.59;77.47;99730.03;5174694;28;20479;-80
2022/04/09 11:28:13;;;;;;;2.03;0.65;;;;;;;9.45;77.05;99732.44;5197473;28;20041;-79
2022/04/09 11:31:00;;;;;;;4.97;0.65;;;;;;;9.58;77.29;99738.78;5185374;28;20039;-80
2022/04/09 11:33:30;;;;;;;2.55;0.63;;;;;;;9.47;77.33;99730.63;5195496;28;20503;-80
2022/04/09 11:36:01;;;;;;;4.50;0.80;;;;;;;9.62;77.80;99740.38;5176177;28;20041;-80
2022/04/09 11:38:32;;;;;;;2.83;0.95;;;;;;;10.01;78.46;99738.53;5184914;28;20068;-80
2022/04/09 11:41:18;;;;;;;2.90;0.80;;;;;;;10.31;77.90;99731.91;5202952;28;20040;-80
2022/04/09 11:43:48;;;;;;;4.25;0.80;;;;;;;10.53;75.19;99735.16;5191969;28;20353;-80
2022/04/09 11:46:19;;;;;;;6.53;1.27;;;;;;;10.77;71.96;99726.09;5195415;28;20032;-80
2022/04/09 11:48:59;;;;;;;3.97;1.30;;;;;;;11.05;71.18;99743.78;5201650;28;20045;-80
2022/04/09 11:51:29;;;;;;;4.00;0.60;;;;;;;11.09;68.21;99727.03;5201014;28;20028;-80
2022/04/09 11:54:13;;;;;;;2.58;0.70;;;;;;;10.72;67.72;99743.78;5183931;28;20365;-80
2022/04/09 11:56:44;;;;;;;4.00;1.33;;;;;;;10.19;70.72;99753.38;5194702;28;20040;-80
2022/04/09 11:59:15;;;;;;;2.38;0.80;;;;;;;9.87;73.24;99753.97;5183729;28;20033;-80